sensor_id;sensor_type;location;lat;lon;timestamp;temperature;humidity
37240;DHT22;23130;48.760;9.178;2023-02-17T00:02:16;8.90;99.90
37240;DHT22;23130;48.760;9.178;2023-02-17T00:04:41;9.00;99.90
37240;DHT22;23130;48.760;9.178;2023-02-17T00:14:28;9.10;99.90
37240;DHT22;23130;48.760;9.178;2023-02-17T00:16:53;9.10;99.90
37240;DHT22;23130;48.760;9.178;2023-02-17T00:19:19;9.10;99.90
37240;DHT22;23130;48.760;9.178;2023-02-17T00:21:53;9.10;99.90
37240;DHT22;23130;48.760;9.178;2023-02-17T00:24:20;8.90;99.90
37240;DHT22;23130;48.760;9.178;2023-02-17T00:26:46;8.90;99.90
37240;DHT22;23130;48.760;9.178;2023-02-17T00:29:13;8.90;99.90
37240;DHT22;23130;48.760;9.178;2023-02-17T00:31:38;8.80;99.90
37240;DHT22;23130;48.760;9.178;2023-02-17T00:34:04;8.80;99.90
37240;DHT22;23130;48.760;9.178;2023-02-17T00:36:30;8.90;99.90
37240;DHT22;23130;48.760;9.178;2023-02-17T00:38:56;8.90;99.90
37240;DHT22;23130;48.760;9.178;2023-02-17T00:41:23;8.90;99.90
37240;DHT22;23130;48.760;9.178;2023-02-17T00:43:49;9.00;99.90
37240;DHT22;23130;48.760;9.178;2023-02-17T00:46:16;9.00;99.90
37240;DHT22;23130;48.760;9.178;2023-02-17T00:48:42;9.10;99.90
37240;DHT22;23130;48.760;9.178;2023-02-17T00:51:08;9.00;99.90
37240;DHT22;23130;48.760;9.178;2023-02-17T00:53:34;9.00;99.90
37240;DHT22;23130;48.760;9.178;2023-02-17T00:56:00;9.00;99.90
37240;DHT22;23130;48.760;9.178;2023-02-17T00:58:26;9.00;99.90
37240;DHT22;23130;48.760;9.178;2023-02-17T01:00:54;9.00;99.90
37240;DHT22;23130;48.760;9.178;2023-02-17T01:03:19;8.90;99.90
37240;DHT22;23130;48.760;9.178;2023-02-17T01:05:46;8.80;99.90
37240;DHT22;23130;48.760;9.178;2023-02-17T01:08:13;8.80;99.90
37240;DHT22;23130;48.760;9.178;2023-02-17T01:10:40;8.80;99.90
37240;DHT22;23130;48.760;9.178;2023-02-17T01:13:06;8.80;99.90
37240;DHT22;23130;48.760;9.178;2023-02-17T01:15:43;8.90;99.90
37240;DHT22;23130;48.760;9.178;2023-02-17T01:18:10;8.90;99.90
37240;DHT22;23130;48.760;9.178;2023-02-17T01:20:37;9.00;99.90
37240;DHT22;23130;48.760;9.178;2023-02-17T01:23:04;9.00;99.90
37240;DHT22;23130;48.760;9.178;2023-02-17T01:25:30;9.00;99.90
37240;DHT22;23130;48.760;9.178;2023-02-17T01:27:56;9.00;99.90
37240;DHT22;23130;48.760;9.178;2023-02-17T01:30:22;9.10;99.90
37240;DHT22;23130;48.760;9.178;2023-02-17T01:32:48;9.10;99.90
37240;DHT22;23130;48.760;9.178;2023-02-17T01:35:14;9.10;99.90
37240;DHT22;23130;48.760;9.178;2023-02-17T01:37:39;9.10;99.90
37240;DHT22;23130;48.760;9.178;2023-02-17T01:40:05;9.10;99.90
37240;DHT22;23130;48.760;9.178;2023-02-17T01:42:31;9.10;99.90
37240;DHT22;23130;48.760;9.178;2023-02-17T01:48:04;9.00;99.90
37240;DHT22;23130;48.760;9.178;2023-02-17T01:50:32;9.00;99.90
37240;DHT22;23130;48.760;9.178;2023-02-17T01:53:00;9.00;99.90
37240;DHT22;23130;48.760;9.178;2023-02-17T01:55:26;8.90;99.90
37240;DHT22;23130;48.760;9.178;2023-02-17T01:57:55;8.80;99.90
37240;DHT22;23130;48.760;9.178;2023-02-17T02:00:22;8.70;99.90
37240;DHT22;23130;48.760;9.178;2023-02-17T02:02:50;8.70;99.90
37240;DHT22;23130;48.760;9.178;2023-02-17T02:05:17;8.70;99.90
37240;DHT22;23130;48.760;9.178;2023-02-17T02:07:44;8.70;99.90
37240;DHT22;23130;48.760;9.178;2023-02-17T02:10:13;8.60;99.90
37240;DHT22;23130;48.760;9.178;2023-02-17T02:12:40;8.70;99.90
37240;DHT22;23130;48.760;9.178;2023-02-17T02:15:18;8.70;99.90
37240;DHT22;23130;48.760;9.178;2023-02-17T02:29:20;8.80;99.90
37240;DHT22;23130;48.760;9.178;2023-02-17T02:34:54;8.70;99.90
37240;DHT22;23130;48.760;9.178;2023-02-17T02:40:10;8.70;99.90
37240;DHT22;23130;48.760;9.178;2023-02-17T02:42:36;8.70;99.90
37240;DHT22;23130;48.760;9.178;2023-02-17T02:45:07;8.80;99.90
37240;DHT22;23130;48.760;9.178;2023-02-17T02:50:06;8.90;99.90
37240;DHT22;23130;48.760;9.178;2023-02-17T02:52:53;9.00;99.90
37240;DHT22;23130;48.760;9.178;2023-02-17T03:06:38;9.10;99.90
37240;DHT22;23130;48.760;9.178;2023-02-17T03:09:18;9.10;99.90
37240;DHT22;23130;48.760;9.178;2023-02-17T03:11:46;9.00;99.90
37240;DHT22;23130;48.760;9.178;2023-02-17T03:14:15;9.10;99.90
37240;DHT22;23130;48.760;9.178;2023-02-17T03:16:42;9.00;99.90
37240;DHT22;23130;48.760;9.178;2023-02-17T03:19:09;8.90;99.90
37240;DHT22;23130;48.760;9.178;2023-02-17T03:21:48;8.90;99.90
37240;DHT22;23130;48.760;9.178;2023-02-17T03:24:14;8.90;99.90
37240;DHT22;23130;48.760;9.178;2023-02-17T03:26:40;8.90;99.90
37240;DHT22;23130;48.760;9.178;2023-02-17T03:29:05;8.90;99.90
37240;DHT22;23130;48.760;9.178;2023-02-17T03:31:31;8.90;99.90
37240;DHT22;23130;48.760;9.178;2023-02-17T03:33:58;8.90;99.90
37240;DHT22;23130;48.760;9.178;2023-02-17T03:36:23;9.00;99.90
37240;DHT22;23130;48.760;9.178;2023-02-17T03:38:49;9.00;99.90
37240;DHT22;23130;48.760;9.178;2023-02-17T03:41:15;8.90;99.90
37240;DHT22;23130;48.760;9.178;2023-02-17T03:43:40;8.90;99.90
37240;DHT22;23130;48.760;9.178;2023-02-17T03:46:10;8.80;99.90
37240;DHT22;23130;48.760;9.178;2023-02-17T03:48:37;8.70;99.90
37240;DHT22;23130;48.760;9.178;2023-02-17T03:51:28;8.70;99.90
37240;DHT22;23130;48.760;9.178;2023-02-17T03:53:54;8.70;99.90
37240;DHT22;23130;48.760;9.178;2023-02-17T03:56:19;8.70;99.90
37240;DHT22;23130;48.760;9.178;2023-02-17T03:58:45;8.60;99.90
37240;DHT22;23130;48.760;9.178;2023-02-17T04:01:12;8.60;99.90
37240;DHT22;23130;48.760;9.178;2023-02-17T04:03:38;8.60;99.90
37240;DHT22;23130;48.760;9.178;2023-02-17T04:06:04;8.60;99.90
37240;DHT22;23130;48.760;9.178;2023-02-17T04:08:30;8.60;99.90
37240;DHT22;23130;48.760;9.178;2023-02-17T04:10:58;8.60;99.90
37240;DHT22;23130;48.760;9.178;2023-02-17T04:13:24;8.60;99.90
37240;DHT22;23130;48.760;9.178;2023-02-17T04:15:51;8.60;99.90
37240;DHT22;23130;48.760;9.178;2023-02-17T04:18:20;8.60;99.90
37240;DHT22;23130;48.760;9.178;2023-02-17T04:20:50;8.70;99.90
37240;DHT22;23130;48.760;9.178;2023-02-17T04:23:16;8.70;99.90
37240;DHT22;23130;48.760;9.178;2023-02-17T04:25:42;8.80;99.90
37240;DHT22;23130;48.760;9.178;2023-02-17T04:28:08;8.70;99.90
37240;DHT22;23130;48.760;9.178;2023-02-17T04:30:34;8.70;99.90
37240;DHT22;23130;48.760;9.178;2023-02-17T04:33:00;8.70;99.90
37240;DHT22;23130;48.760;9.178;2023-02-17T04:35:28;8.60;99.90
37240;DHT22;23130;48.760;9.178;2023-02-17T04:37:54;8.70;99.90
37240;DHT22;23130;48.760;9.178;2023-02-17T04:40:20;8.70;99.90
37240;DHT22;23130;48.760;9.178;2023-02-17T04:42:46;8.70;99.90
37240;DHT22;23130;48.760;9.178;2023-02-17T04:45:12;8.70;99.90
37240;DHT22;23130;48.760;9.178;2023-02-17T04:47:38;8.60;99.90
37240;DHT22;23130;48.760;9.178;2023-02-17T04:50:06;8.60;99.90
37240;DHT22;23130;48.760;9.178;2023-02-17T04:52:31;8.70;99.90
37240;DHT22;23130;48.760;9.178;2023-02-17T04:54:57;8.70;99.90
37240;DHT22;23130;48.760;9.178;2023-02-17T04:57:23;8.70;99.90
37240;DHT22;23130;48.760;9.178;2023-02-17T04:59:48;8.80;99.90
37240;DHT22;23130;48.760;9.178;2023-02-17T05:02:14;8.80;99.90
37240;DHT22;23130;48.760;9.178;2023-02-17T05:04:39;8.70;99.90
37240;DHT22;23130;48.760;9.178;2023-02-17T05:07:05;8.80;99.90
37240;DHT22;23130;48.760;9.178;2023-02-17T05:09:30;8.80;99.90
37240;DHT22;23130;48.760;9.178;2023-02-17T05:11:56;8.80;99.90
37240;DHT22;23130;48.760;9.178;2023-02-17T05:14:21;8.70;99.90
37240;DHT22;23130;48.760;9.178;2023-02-17T05:16:47;8.70;99.90
37240;DHT22;23130;48.760;9.178;2023-02-17T05:19:12;8.70;99.90
37240;DHT22;23130;48.760;9.178;2023-02-17T05:21:38;8.60;99.90
37240;DHT22;23130;48.760;9.178;2023-02-17T05:24:04;8.70;99.90
37240;DHT22;23130;48.760;9.178;2023-02-17T05:26:29;8.80;99.90
37240;DHT22;23130;48.760;9.178;2023-02-17T05:28:55;8.80;99.90
37240;DHT22;23130;48.760;9.178;2023-02-17T05:31:21;8.80;99.90
37240;DHT22;23130;48.760;9.178;2023-02-17T05:33:46;8.80;99.90
37240;DHT22;23130;48.760;9.178;2023-02-17T05:36:12;8.80;99.90
37240;DHT22;23130;48.760;9.178;2023-02-17T05:38:38;8.80;99.90
37240;DHT22;23130;48.760;9.178;2023-02-17T05:41:04;8.90;99.90
37240;DHT22;23130;48.760;9.178;2023-02-17T05:43:30;8.90;99.90
37240;DHT22;23130;48.760;9.178;2023-02-17T05:45:59;9.00;99.90
37240;DHT22;23130;48.760;9.178;2023-02-17T05:48:25;9.00;99.90
37240;DHT22;23130;48.760;9.178;2023-02-17T05:50:51;9.00;99.90
37240;DHT22;23130;48.760;9.178;2023-02-17T05:53:16;9.10;99.90
37240;DHT22;23130;48.760;9.178;2023-02-17T05:55:42;9.10;99.90
37240;DHT22;23130;48.760;9.178;2023-02-17T05:58:07;9.20;99.90
37240;DHT22;23130;48.760;9.178;2023-02-17T06:00:33;9.30;99.90
37240;DHT22;23130;48.760;9.178;2023-02-17T06:02:58;9.40;99.90
37240;DHT22;23130;48.760;9.178;2023-02-17T06:05:24;9.40;99.90
37240;DHT22;23130;48.760;9.178;2023-02-17T06:07:49;9.50;99.90
37240;DHT22;23130;48.760;9.178;2023-02-17T06:10:17;9.50;99.90
37240;DHT22;23130;48.760;9.178;2023-02-17T06:12:43;9.50;99.90
37240;DHT22;23130;48.760;9.178;2023-02-17T06:15:09;9.50;99.90
37240;DHT22;23130;48.760;9.178;2023-02-17T06:17:34;9.50;99.90
37240;DHT22;23130;48.760;9.178;2023-02-17T06:20:00;9.50;99.90
37240;DHT22;23130;48.760;9.178;2023-02-17T06:22:25;9.50;99.90
37240;DHT22;23130;48.760;9.178;2023-02-17T06:24:51;9.50;99.90
37240;DHT22;23130;48.760;9.178;2023-02-17T06:27:17;9.40;99.90
37240;DHT22;23130;48.760;9.178;2023-02-17T06:29:42;9.40;99.90
37240;DHT22;23130;48.760;9.178;2023-02-17T06:32:08;9.50;99.90
37240;DHT22;23130;48.760;9.178;2023-02-17T06:34:34;9.40;99.90
37240;DHT22;23130;48.760;9.178;2023-02-17T06:36:59;9.40;99.90
37240;DHT22;23130;48.760;9.178;2023-02-17T06:39:25;9.40;99.90
37240;DHT22;23130;48.760;9.178;2023-02-17T06:41:51;9.30;99.90
37240;DHT22;23130;48.760;9.178;2023-02-17T06:44:16;9.30;99.90
37240;DHT22;23130;48.760;9.178;2023-02-17T06:46:42;9.30;99.90
37240;DHT22;23130;48.760;9.178;2023-02-17T06:49:10;9.40;99.90
37240;DHT22;23130;48.760;9.178;2023-02-17T06:51:35;9.40;99.90
37240;DHT22;23130;48.760;9.178;2023-02-17T06:54:01;9.50;99.90
37240;DHT22;23130;48.760;9.178;2023-02-17T06:56:26;9.50;99.90
37240;DHT22;23130;48.760;9.178;2023-02-17T06:58:52;9.60;99.90
37240;DHT22;23130;48.760;9.178;2023-02-17T07:01:20;9.60;99.90
37240;DHT22;23130;48.760;9.178;2023-02-17T07:03:46;9.70;99.90
37240;DHT22;23130;48.760;9.178;2023-02-17T07:06:12;9.70;99.90
37240;DHT22;23130;48.760;9.178;2023-02-17T07:08:38;9.60;99.90
37240;DHT22;23130;48.760;9.178;2023-02-17T07:11:05;9.70;99.90
37240;DHT22;23130;48.760;9.178;2023-02-17T07:13:31;9.70;99.90
37240;DHT22;23130;48.760;9.178;2023-02-17T07:15:57;9.70;99.90
37240;DHT22;23130;48.760;9.178;2023-02-17T07:18:22;9.70;99.90
37240;DHT22;23130;48.760;9.178;2023-02-17T07:20:48;9.80;99.90
37240;DHT22;23130;48.760;9.178;2023-02-17T07:23:14;9.80;99.90
37240;DHT22;23130;48.760;9.178;2023-02-17T07:25:39;9.80;99.90
37240;DHT22;23130;48.760;9.178;2023-02-17T07:28:05;9.90;99.90
37240;DHT22;23130;48.760;9.178;2023-02-17T07:30:31;9.90;99.90
37240;DHT22;23130;48.760;9.178;2023-02-17T07:32:56;9.90;99.90
37240;DHT22;23130;48.760;9.178;2023-02-17T07:35:22;10.00;99.90
37240;DHT22;23130;48.760;9.178;2023-02-17T07:37:47;10.00;99.90
37240;DHT22;23130;48.760;9.178;2023-02-17T07:40:13;10.10;99.90
37240;DHT22;23130;48.760;9.178;2023-02-17T07:42:38;10.20;99.90
37240;DHT22;23130;48.760;9.178;2023-02-17T07:45:05;10.30;99.90
37240;DHT22;23130;48.760;9.178;2023-02-17T07:47:32;10.40;99.90
37240;DHT22;23130;48.760;9.178;2023-02-17T07:49:57;10.50;99.90
37240;DHT22;23130;48.760;9.178;2023-02-17T07:52:23;10.60;99.90
37240;DHT22;23130;48.760;9.178;2023-02-17T07:54:48;10.60;99.90
37240;DHT22;23130;48.760;9.178;2023-02-17T07:57:14;10.70;99.90
37240;DHT22;23130;48.760;9.178;2023-02-17T07:59:39;10.70;99.90
37240;DHT22;23130;48.760;9.178;2023-02-17T08:02:05;10.70;99.90
37240;DHT22;23130;48.760;9.178;2023-02-17T08:04:31;10.70;99.90
37240;DHT22;23130;48.760;9.178;2023-02-17T08:06:57;10.80;99.90
37240;DHT22;23130;48.760;9.178;2023-02-17T08:09:23;10.80;99.90
37240;DHT22;23130;48.760;9.178;2023-02-17T08:12:14;10.80;99.90
37240;DHT22;23130;48.760;9.178;2023-02-17T08:15:02;10.80;99.90
37240;DHT22;23130;48.760;9.178;2023-02-17T08:17:28;10.90;99.90
37240;DHT22;23130;48.760;9.178;2023-02-17T08:19:54;11.00;99.90
37240;DHT22;23130;48.760;9.178;2023-02-17T08:22:20;11.00;99.90
37240;DHT22;23130;48.760;9.178;2023-02-17T08:24:46;11.20;99.90
37240;DHT22;23130;48.760;9.178;2023-02-17T08:27:13;11.40;99.90
37240;DHT22;23130;48.760;9.178;2023-02-17T08:29:40;11.60;99.90
37240;DHT22;23130;48.760;9.178;2023-02-17T08:32:06;11.70;99.90
37240;DHT22;23130;48.760;9.178;2023-02-17T08:34:32;11.80;99.90
37240;DHT22;23130;48.760;9.178;2023-02-17T08:37:01;11.90;99.90
37240;DHT22;23130;48.760;9.178;2023-02-17T08:39:28;11.80;99.90
37240;DHT22;23130;48.760;9.178;2023-02-17T08:41:54;11.60;99.90
37240;DHT22;23130;48.760;9.178;2023-02-17T08:44:19;11.40;99.90
37240;DHT22;23130;48.760;9.178;2023-02-17T08:46:47;11.40;99.90
37240;DHT22;23130;48.760;9.178;2023-02-17T08:49:15;11.40;99.90
37240;DHT22;23130;48.760;9.178;2023-02-17T08:51:42;11.50;99.90
37240;DHT22;23130;48.760;9.178;2023-02-17T08:54:10;11.60;99.90
37240;DHT22;23130;48.760;9.178;2023-02-17T08:56:36;11.70;99.90
37240;DHT22;23130;48.760;9.178;2023-02-17T08:59:03;11.90;99.90
37240;DHT22;23130;48.760;9.178;2023-02-17T09:01:29;12.00;99.90
37240;DHT22;23130;48.760;9.178;2023-02-17T09:03:56;12.00;99.90
37240;DHT22;23130;48.760;9.178;2023-02-17T09:06:23;11.90;99.90
37240;DHT22;23130;48.760;9.178;2023-02-17T09:08:49;11.80;99.90
37240;DHT22;23130;48.760;9.178;2023-02-17T09:11:16;11.80;99.90
37240;DHT22;23130;48.760;9.178;2023-02-17T09:13:44;11.70;99.90
37240;DHT22;23130;48.760;9.178;2023-02-17T09:16:10;11.60;99.90
37240;DHT22;23130;48.760;9.178;2023-02-17T09:18:36;11.50;99.90
37240;DHT22;23130;48.760;9.178;2023-02-17T09:21:09;11.40;99.90
37240;DHT22;23130;48.760;9.178;2023-02-17T09:23:34;11.30;99.90
37240;DHT22;23130;48.760;9.178;2023-02-17T09:26:07;11.20;99.90
37240;DHT22;23130;48.760;9.178;2023-02-17T09:28:33;11.20;99.90
37240;DHT22;23130;48.760;9.178;2023-02-17T09:31:10;11.30;99.90
37240;DHT22;23130;48.760;9.178;2023-02-17T09:33:37;11.40;99.90
37240;DHT22;23130;48.760;9.178;2023-02-17T09:36:05;11.50;99.90
37240;DHT22;23130;48.760;9.178;2023-02-17T09:38:30;11.60;99.90
37240;DHT22;23130;48.760;9.178;2023-02-17T09:41:02;11.70;99.90
37240;DHT22;23130;48.760;9.178;2023-02-17T09:43:31;11.80;99.90
37240;DHT22;23130;48.760;9.178;2023-02-17T09:46:01;11.90;99.90
37240;DHT22;23130;48.760;9.178;2023-02-17T09:48:30;12.00;99.90
37240;DHT22;23130;48.760;9.178;2023-02-17T09:51:06;12.00;99.90
37240;DHT22;23130;48.760;9.178;2023-02-17T09:56:05;12.10;99.90
37240;DHT22;23130;48.760;9.178;2023-02-17T09:58:36;12.20;99.90
37240;DHT22;23130;48.760;9.178;2023-02-17T10:01:09;12.00;99.90
37240;DHT22;23130;48.760;9.178;2023-02-17T10:03:45;12.00;99.90
37240;DHT22;23130;48.760;9.178;2023-02-17T10:09:13;12.60;99.90
37240;DHT22;23130;48.760;9.178;2023-02-17T10:14:28;13.10;99.90
37240;DHT22;23130;48.760;9.178;2023-02-17T10:17:02;13.40;99.90
37240;DHT22;23130;48.760;9.178;2023-02-17T10:19:31;13.40;99.90
37240;DHT22;23130;48.760;9.178;2023-02-17T10:22:19;13.20;99.90
37240;DHT22;23130;48.760;9.178;2023-02-17T10:24:46;13.00;99.90
37240;DHT22;23130;48.760;9.178;2023-02-17T10:27:35;13.00;99.90
37240;DHT22;23130;48.760;9.178;2023-02-17T10:40:49;14.10;99.90
37240;DHT22;23130;48.760;9.178;2023-02-17T10:43:21;14.50;99.90
37240;DHT22;23130;48.760;9.178;2023-02-17T10:45:49;14.80;99.90
37240;DHT22;23130;48.760;9.178;2023-02-17T10:48:22;15.10;99.90
37240;DHT22;23130;48.760;9.178;2023-02-17T10:50:49;15.20;99.90
37240;DHT22;23130;48.760;9.178;2023-02-17T10:53:21;15.20;99.90
37240;DHT22;23130;48.760;9.178;2023-02-17T10:58:30;14.90;99.90
37240;DHT22;23130;48.760;9.178;2023-02-17T11:00:57;14.80;99.90
37240;DHT22;23130;48.760;9.178;2023-02-17T11:03:27;14.70;99.90
37240;DHT22;23130;48.760;9.178;2023-02-17T11:05:58;14.70;99.90
37240;DHT22;23130;48.760;9.178;2023-02-17T11:08:34;14.60;99.90
37240;DHT22;23130;48.760;9.178;2023-02-17T11:11:16;14.40;99.90
37240;DHT22;23130;48.760;9.178;2023-02-17T11:16:39;14.00;99.90
37240;DHT22;23130;48.760;9.178;2023-02-17T11:19:35;14.10;99.90
37240;DHT22;23130;48.760;9.178;2023-02-17T11:22:03;14.40;99.90
37240;DHT22;23130;48.760;9.178;2023-02-17T11:24:31;14.60;99.90
37240;DHT22;23130;48.760;9.178;2023-02-17T11:27:07;14.50;99.90
37240;DHT22;23130;48.760;9.178;2023-02-17T11:29:33;14.40;99.90
37240;DHT22;23130;48.760;9.178;2023-02-17T11:32:09;14.50;99.90
37240;DHT22;23130;48.760;9.178;2023-02-17T11:34:37;14.80;99.90
37240;DHT22;23130;48.760;9.178;2023-02-17T11:39:43;14.90;99.90
37240;DHT22;23130;48.760;9.178;2023-02-17T11:44:48;14.80;99.90
37240;DHT22;23130;48.760;9.178;2023-02-17T11:47:38;14.70;99.90
37240;DHT22;23130;48.760;9.178;2023-02-17T11:50:34;14.50;99.90
37240;DHT22;23130;48.760;9.178;2023-02-17T11:53:36;14.30;99.90
37240;DHT22;23130;48.760;9.178;2023-02-17T11:56:28;14.30;99.90
37240;DHT22;23130;48.760;9.178;2023-02-17T12:06:41;14.50;99.90
37240;DHT22;23130;48.760;9.178;2023-02-17T12:12:34;14.40;99.90
37240;DHT22;23130;48.760;9.178;2023-02-17T12:17:54;14.10;99.90
37240;DHT22;23130;48.760;9.178;2023-02-17T12:26:15;14.10;99.90
37240;DHT22;23130;48.760;9.178;2023-02-17T12:34:18;14.20;99.90
37240;DHT22;23130;48.760;9.178;2023-02-17T12:36:48;14.10;99.90
37240;DHT22;23130;48.760;9.178;2023-02-17T12:39:22;14.10;99.90
37240;DHT22;23130;48.760;9.178;2023-02-17T12:42:51;14.10;99.90
37240;DHT22;23130;48.760;9.178;2023-02-17T12:44:55;14.20;99.90
37240;DHT22;23130;48.760;9.178;2023-02-17T12:47:49;14.30;99.90
37240;DHT22;23130;48.760;9.178;2023-02-17T12:50:34;14.40;99.90
37240;DHT22;23130;48.760;9.178;2023-02-17T12:53:06;14.60;99.90
37240;DHT22;23130;48.760;9.178;2023-02-17T12:55:42;14.80;99.90
37240;DHT22;23130;48.760;9.178;2023-02-17T12:58:19;14.90;99.90
37240;DHT22;23130;48.760;9.178;2023-02-17T13:00:48;14.90;99.90
37240;DHT22;23130;48.760;9.178;2023-02-17T13:03:16;15.00;99.90
37240;DHT22;23130;48.760;9.178;2023-02-17T13:08:57;14.90;99.90
37240;DHT22;23130;48.760;9.178;2023-02-17T13:11:32;14.90;99.90
37240;DHT22;23130;48.760;9.178;2023-02-17T13:14:28;14.90;99.90
37240;DHT22;23130;48.760;9.178;2023-02-17T13:16:54;14.70;99.90
37240;DHT22;23130;48.760;9.178;2023-02-17T13:19:33;14.70;99.90
37240;DHT22;23130;48.760;9.178;2023-02-17T13:21:59;14.60;99.90
37240;DHT22;23130;48.760;9.178;2023-02-17T13:24:30;14.60;99.90
37240;DHT22;23130;48.760;9.178;2023-02-17T13:26:57;14.50;99.90
37240;DHT22;23130;48.760;9.178;2023-02-17T13:29:34;14.50;99.90
37240;DHT22;23130;48.760;9.178;2023-02-17T13:32:06;14.50;99.90
37240;DHT22;23130;48.760;9.178;2023-02-17T13:34:39;14.40;99.90
37240;DHT22;23130;48.760;9.178;2023-02-17T13:39:55;14.50;99.90
37240;DHT22;23130;48.760;9.178;2023-02-17T13:42:56;14.60;99.90
37240;DHT22;23130;48.760;9.178;2023-02-17T13:45:39;14.60;99.90
37240;DHT22;23130;48.760;9.178;2023-02-17T13:48:22;14.80;99.90
37240;DHT22;23130;48.760;9.178;2023-02-17T13:50:51;14.80;99.90
37240;DHT22;23130;48.760;9.178;2023-02-17T13:53:28;14.90;99.90
37240;DHT22;23130;48.760;9.178;2023-02-17T13:56:03;15.00;99.90
37240;DHT22;23130;48.760;9.178;2023-02-17T13:58:32;15.00;99.90
37240;DHT22;23130;48.760;9.178;2023-02-17T14:00:59;14.80;99.90
37240;DHT22;23130;48.760;9.178;2023-02-17T14:03:28;14.70;99.90
37240;DHT22;23130;48.760;9.178;2023-02-17T14:05:58;14.50;99.90
37240;DHT22;23130;48.760;9.178;2023-02-17T14:08:32;14.50;99.90
37240;DHT22;23130;48.760;9.178;2023-02-17T14:11:09;14.50;99.90
37240;DHT22;23130;48.760;9.178;2023-02-17T14:13:37;14.30;99.90
37240;DHT22;23130;48.760;9.178;2023-02-17T14:16:03;14.30;99.90
37240;DHT22;23130;48.760;9.178;2023-02-17T14:18:38;14.20;99.90
37240;DHT22;23130;48.760;9.178;2023-02-17T14:21:10;14.30;99.90
37240;DHT22;23130;48.760;9.178;2023-02-17T14:23:56;14.30;99.90
37240;DHT22;23130;48.760;9.178;2023-02-17T14:29:06;14.60;99.90
37240;DHT22;23130;48.760;9.178;2023-02-17T14:31:40;14.50;99.90
37240;DHT22;23130;48.760;9.178;2023-02-17T14:34:13;14.40;99.90
37240;DHT22;23130;48.760;9.178;2023-02-17T14:36:39;14.30;99.90
37240;DHT22;23130;48.760;9.178;2023-02-17T14:39:07;14.20;99.90
37240;DHT22;23130;48.760;9.178;2023-02-17T14:41:33;14.20;99.90
37240;DHT22;23130;48.760;9.178;2023-02-17T14:43:59;14.10;99.90
37240;DHT22;23130;48.760;9.178;2023-02-17T14:46:26;14.00;99.90
37240;DHT22;23130;48.760;9.178;2023-02-17T14:48:52;13.90;99.90
37240;DHT22;23130;48.760;9.178;2023-02-17T14:51:21;13.70;99.90
37240;DHT22;23130;48.760;9.178;2023-02-17T14:53:48;13.60;99.90
37240;DHT22;23130;48.760;9.178;2023-02-17T14:56:35;13.40;99.90
37240;DHT22;23130;48.760;9.178;2023-02-17T14:59:01;13.30;99.90
37240;DHT22;23130;48.760;9.178;2023-02-17T15:01:27;13.30;99.90
37240;DHT22;23130;48.760;9.178;2023-02-17T15:03:53;13.20;99.90
37240;DHT22;23130;48.760;9.178;2023-02-17T15:06:21;13.20;99.90
37240;DHT22;23130;48.760;9.178;2023-02-17T15:08:47;13.20;99.90
37240;DHT22;23130;48.760;9.178;2023-02-17T15:11:26;13.20;99.90
37240;DHT22;23130;48.760;9.178;2023-02-17T15:13:53;13.20;99.90
37240;DHT22;23130;48.760;9.178;2023-02-17T15:16:18;13.20;99.90
37240;DHT22;23130;48.760;9.178;2023-02-17T15:18:44;13.20;99.90
37240;DHT22;23130;48.760;9.178;2023-02-17T15:21:29;13.20;99.90
37240;DHT22;23130;48.760;9.178;2023-02-17T15:23:57;13.20;99.90
37240;DHT22;23130;48.760;9.178;2023-02-17T15:26:24;13.20;99.90
37240;DHT22;23130;48.760;9.178;2023-02-17T15:28:50;13.10;99.90
37240;DHT22;23130;48.760;9.178;2023-02-17T15:31:16;13.10;99.90
37240;DHT22;23130;48.760;9.178;2023-02-17T15:33:54;13.10;99.90
37240;DHT22;23130;48.760;9.178;2023-02-17T15:36:21;13.00;99.90
37240;DHT22;23130;48.760;9.178;2023-02-17T15:38:47;13.00;99.90
37240;DHT22;23130;48.760;9.178;2023-02-17T15:41:21;13.00;99.90
37240;DHT22;23130;48.760;9.178;2023-02-17T15:43:49;13.00;99.90
37240;DHT22;23130;48.760;9.178;2023-02-17T15:46:16;13.10;99.90
37240;DHT22;23130;48.760;9.178;2023-02-17T15:48:43;13.10;99.90
37240;DHT22;23130;48.760;9.178;2023-02-17T15:51:13;13.00;99.90
37240;DHT22;23130;48.760;9.178;2023-02-17T15:53:40;12.90;99.90
37240;DHT22;23130;48.760;9.178;2023-02-17T15:56:26;12.90;99.90
37240;DHT22;23130;48.760;9.178;2023-02-17T15:58:54;12.80;99.90
37240;DHT22;23130;48.760;9.178;2023-02-17T16:01:32;12.80;99.90
37240;DHT22;23130;48.760;9.178;2023-02-17T16:03:59;12.70;99.90
37240;DHT22;23130;48.760;9.178;2023-02-17T16:06:25;12.60;99.90
37240;DHT22;23130;48.760;9.178;2023-02-17T16:08:51;12.60;99.90
37240;DHT22;23130;48.760;9.178;2023-02-17T16:11:17;12.60;99.90
37240;DHT22;23130;48.760;9.178;2023-02-17T16:13:44;12.40;99.90
37240;DHT22;23130;48.760;9.178;2023-02-17T16:16:29;12.40;99.90
37240;DHT22;23130;48.760;9.178;2023-02-17T16:18:57;12.30;99.90
37240;DHT22;23130;48.760;9.178;2023-02-17T16:21:23;12.20;99.90
37240;DHT22;23130;48.760;9.178;2023-02-17T16:23:49;12.20;99.90
37240;DHT22;23130;48.760;9.178;2023-02-17T16:26:31;12.10;99.90
37240;DHT22;23130;48.760;9.178;2023-02-17T16:28:58;12.00;99.90
37240;DHT22;23130;48.760;9.178;2023-02-17T16:31:25;11.90;99.90
37240;DHT22;23130;48.760;9.178;2023-02-17T16:33:50;11.90;99.90
37240;DHT22;23130;48.760;9.178;2023-02-17T16:36:19;11.80;99.90
37240;DHT22;23130;48.760;9.178;2023-02-17T16:38:48;11.80;99.90
37240;DHT22;23130;48.760;9.178;2023-02-17T16:41:19;11.80;99.90
37240;DHT22;23130;48.760;9.178;2023-02-17T16:43:45;11.90;99.90
37240;DHT22;23130;48.760;9.178;2023-02-17T16:48:43;11.80;99.90
37240;DHT22;23130;48.760;9.178;2023-02-17T16:51:08;11.80;99.90
37240;DHT22;23130;48.760;9.178;2023-02-17T16:53:34;11.80;99.90
37240;DHT22;23130;48.760;9.178;2023-02-17T16:56:08;11.80;99.90
37240;DHT22;23130;48.760;9.178;2023-02-17T16:58:39;11.90;99.90
37240;DHT22;23130;48.760;9.178;2023-02-17T17:01:05;12.00;99.90
37240;DHT22;23130;48.760;9.178;2023-02-17T17:03:37;12.00;99.90
37240;DHT22;23130;48.760;9.178;2023-02-17T17:08:38;12.00;99.90
37240;DHT22;23130;48.760;9.178;2023-02-17T17:11:04;12.10;99.90
37240;DHT22;23130;48.760;9.178;2023-02-17T17:13:29;12.10;99.90
37240;DHT22;23130;48.760;9.178;2023-02-17T17:15:55;12.10;99.90
37240;DHT22;23130;48.760;9.178;2023-02-17T17:18:21;12.10;99.90
37240;DHT22;23130;48.760;9.178;2023-02-17T17:20:48;12.10;99.90
37240;DHT22;23130;48.760;9.178;2023-02-17T17:23:14;12.10;99.90
37240;DHT22;23130;48.760;9.178;2023-02-17T17:25:42;12.20;99.90
37240;DHT22;23130;48.760;9.178;2023-02-17T17:28:15;12.20;99.90
37240;DHT22;23130;48.760;9.178;2023-02-17T17:30:42;12.20;99.90
37240;DHT22;23130;48.760;9.178;2023-02-17T17:33:11;12.20;99.90
37240;DHT22;23130;48.760;9.178;2023-02-17T17:35:40;12.20;99.90
37240;DHT22;23130;48.760;9.178;2023-02-17T17:38:05;12.20;99.90
37240;DHT22;23130;48.760;9.178;2023-02-17T17:40:34;12.20;99.90